sensor_id;sensor_type;location;lat;lon;timestamp;pressure;altitude;pressure_sealevel;temperature;humidity
35918;BME280;22011;59.912;30.300;2023-04-20T00:00:59;103043.88;;;8.57;41.30
35918;BME280;22011;59.912;30.300;2023-04-20T00:03:27;103034.38;;;8.53;41.83
35918;BME280;22011;59.912;30.300;2023-04-20T00:05:55;103032.56;;;8.53;41.60
35918;BME280;22011;59.912;30.300;2023-04-20T00:08:22;103040.25;;;8.58;41.98
35918;BME280;22011;59.912;30.300;2023-04-20T00:10:51;103033.69;;;8.64;41.84
35918;BME280;22011;59.912;30.300;2023-04-20T00:13:18;103041.66;;;8.64;41.85
35918;BME280;22011;59.912;30.300;2023-04-20T00:15:46;103037.41;;;8.61;42.63
35918;BME280;22011;59.912;30.300;2023-04-20T00:18:13;103040.81;;;8.63;42.70
35918;BME280;22011;59.912;30.300;2023-04-20T00:20:41;103038.34;;;8.60;42.95
35918;BME280;22011;59.912;30.300;2023-04-20T00:23:09;103042.06;;;8.58;42.89
35918;BME280;22011;59.912;30.300;2023-04-20T00:25:36;103037.78;;;8.55;43.17
35918;BME280;22011;59.912;30.300;2023-04-20T00:28:05;103036.75;;;8.58;42.97
35918;BME280;22011;59.912;30.300;2023-04-20T00:30:33;103024.88;;;8.49;42.72
35918;BME280;22011;59.912;30.300;2023-04-20T00:33:01;103028.09;;;8.54;43.01
35918;BME280;22011;59.912;30.300;2023-04-20T00:35:29;103019.56;;;8.49;42.68
35918;BME280;22011;59.912;30.300;2023-04-20T00:37:56;103016.16;;;8.47;42.70
35918;BME280;22011;59.912;30.300;2023-04-20T00:40:25;103011.31;;;8.39;42.06
35918;BME280;22011;59.912;30.300;2023-04-20T00:42:52;103014.84;;;8.40;42.32
35918;BME280;22011;59.912;30.300;2023-04-20T00:45:24;103014.09;;;8.38;42.41
35918;BME280;22011;59.912;30.300;2023-04-20T00:47:52;103009.06;;;8.33;42.60
35918;BME280;22011;59.912;30.300;2023-04-20T00:50:20;103005.53;;;8.33;43.26
35918;BME280;22011;59.912;30.300;2023-04-20T00:52:47;103004.03;;;8.29;43.30
35918;BME280;22011;59.912;30.300;2023-04-20T00:55:16;102999.66;;;8.28;43.80
35918;BME280;22011;59.912;30.300;2023-04-20T00:57:44;103003.28;;;8.27;43.75
35918;BME280;22011;59.912;30.300;2023-04-20T01:00:12;102998.91;;;8.26;43.59
35918;BME280;22011;59.912;30.300;2023-04-20T01:02:41;103007.63;;;8.28;43.58
35918;BME280;22011;59.912;30.300;2023-04-20T01:05:08;103003.28;;;8.27;42.68
35918;BME280;22011;59.912;30.300;2023-04-20T01:07:36;103007.53;;;8.29;42.47
35918;BME280;22011;59.912;30.300;2023-04-20T01:10:05;103004.78;;;8.31;43.11
35918;BME280;22011;59.912;30.300;2023-04-20T01:12:33;103004.66;;;8.32;42.42
35918;BME280;22011;59.912;30.300;2023-04-20T01:15:01;103000.13;;;8.34;42.29
35918;BME280;22011;59.912;30.300;2023-04-20T01:17:28;103003.00;;;8.31;42.45
35918;BME280;22011;59.912;30.300;2023-04-20T01:19:57;102993.88;;;8.35;42.37
35918;BME280;22011;59.912;30.300;2023-04-20T01:22:28;103004.31;;;8.38;42.40
35918;BME280;22011;59.912;30.300;2023-04-20T01:24:55;103002.69;;;8.36;42.54
35918;BME280;22011;59.912;30.300;2023-04-20T01:27:23;102998.53;;;8.32;42.73
35918;BME280;22011;59.912;30.300;2023-04-20T01:29:51;102991.50;;;8.31;42.85
35918;BME280;22011;59.912;30.300;2023-04-20T01:32:19;102991.50;;;8.31;42.99
35918;BME280;22011;59.912;30.300;2023-04-20T01:34:46;102987.72;;;8.35;43.56
35918;BME280;22011;59.912;30.300;2023-04-20T01:37:15;102988.72;;;8.32;44.09
35918;BME280;22011;59.912;30.300;2023-04-20T01:39:44;102989.72;;;8.31;44.93
35918;BME280;22011;59.912;30.300;2023-04-20T01:42:11;102988.38;;;8.24;45.34
35918;BME280;22011;59.912;30.300;2023-04-20T01:44:39;102984.97;;;8.22;45.70
35918;BME280;22011;59.912;30.300;2023-04-20T01:47:06;102988.66;;;8.19;45.64
35918;BME280;22011;59.912;30.300;2023-04-20T01:49:34;102990.75;;;8.14;45.29
35918;BME280;22011;59.912;30.300;2023-04-20T01:52:01;102988.94;;;8.15;45.15
35918;BME280;22011;59.912;30.300;2023-04-20T01:54:29;102984.50;;;8.15;45.24
35918;BME280;22011;59.912;30.300;2023-04-20T01:56:58;102985.91;;;8.21;45.38
35918;BME280;22011;59.912;30.300;2023-04-20T01:59:25;102984.31;;;8.18;45.02
35918;BME280;22011;59.912;30.300;2023-04-20T02:01:53;102983.25;;;8.21;45.01
35918;BME280;22011;59.912;30.300;2023-04-20T02:04:20;102980.22;;;8.27;45.11
35918;BME280;22011;59.912;30.300;2023-04-20T02:06:48;102976.44;;;8.31;45.16
35918;BME280;22011;59.912;30.300;2023-04-20T02:09:15;102978.22;;;8.31;45.70
35918;BME280;22011;59.912;30.300;2023-04-20T02:11:43;102978.31;;;8.29;46.23
35918;BME280;22011;59.912;30.300;2023-04-20T02:14:12;102976.44;;;8.31;46.44
35918;BME280;22011;59.912;30.300;2023-04-20T02:16:40;102973.22;;;8.26;46.78
35918;BME280;22011;59.912;30.300;2023-04-20T02:19:08;102977.84;;;8.23;46.90
35918;BME280;22011;59.912;30.300;2023-04-20T02:21:36;102975.97;;;8.25;47.13
35918;BME280;22011;59.912;30.300;2023-04-20T02:24:04;102970.66;;;8.25;47.48
35918;BME280;22011;59.912;30.300;2023-04-20T02:26:31;102965.06;;;8.15;47.75
35918;BME280;22011;59.912;30.300;2023-04-20T02:28:59;102964.19;;;8.14;48.23
35918;BME280;22011;59.912;30.300;2023-04-20T02:31:28;102966.09;;;8.12;48.61
35918;BME280;22011;59.912;30.300;2023-04-20T02:33:55;102960.78;;;8.12;48.05
35918;BME280;22011;59.912;30.300;2023-04-20T02:36:25;102963.25;;;8.15;48.71
35918;BME280;22011;59.912;30.300;2023-04-20T02:38:53;102957.00;;;8.16;48.71
35918;BME280;22011;59.912;30.300;2023-04-20T02:41:20;102959.66;;;8.16;48.44
35918;BME280;22011;59.912;30.300;2023-04-20T02:43:48;102953.59;;;8.14;49.00
35918;BME280;22011;59.912;30.300;2023-04-20T02:46:16;102956.13;;;8.16;49.22
35918;BME280;22011;59.912;30.300;2023-04-20T02:48:45;102953.19;;;8.20;49.50
35918;BME280;22011;59.912;30.300;2023-04-20T02:51:13;102955.94;;;8.19;49.13
35918;BME280;22011;59.912;30.300;2023-04-20T02:53:43;102953.19;;;8.20;49.36
35918;BME280;22011;59.912;30.300;2023-04-20T02:56:22;102946.19;;;8.19;49.51
35918;BME280;22011;59.912;30.300;2023-04-20T02:58:55;102949.13;;;8.15;49.70
35918;BME280;22011;59.912;30.300;2023-04-20T03:01:35;102951.13;;;8.11;49.56
35918;BME280;22011;59.912;30.300;2023-04-20T03:04:19;102950.34;;;8.09;49.31
35918;BME280;22011;59.912;30.300;2023-04-20T03:06:54;102951.50;;;8.05;49.19
35918;BME280;22011;59.912;30.300;2023-04-20T03:09:27;102946.38;;;8.02;49.21
35918;BME280;22011;59.912;30.300;2023-04-20T03:12:06;102943.91;;;7.99;49.61
35918;BME280;22011;59.912;30.300;2023-04-20T03:14:59;102945.72;;;7.99;50.04
35918;BME280;22011;59.912;30.300;2023-04-20T03:17:41;102941.81;;;8.04;50.25
35918;BME280;22011;59.912;30.300;2023-04-20T03:20:11;102951.22;;;8.10;50.64
35918;BME280;22011;59.912;30.300;2023-04-20T03:22:40;102942.41;;;8.09;50.44
35918;BME280;22011;59.912;30.300;2023-04-20T03:25:08;102943.16;;;8.11;50.16
35918;BME280;22011;59.912;30.300;2023-04-20T03:27:56;102939.06;;;8.06;50.89
35918;BME280;22011;59.912;30.300;2023-04-20T03:30:24;102940.78;;;8.07;50.68
35918;BME280;22011;59.912;30.300;2023-04-20T03:32:58;102937.09;;;8.09;50.48
35918;BME280;22011;59.912;30.300;2023-04-20T03:35:28;102933.84;;;8.18;51.01
35918;BME280;22011;59.912;30.300;2023-04-20T03:37:55;102931.47;;;8.14;50.58
35918;BME280;22011;59.912;30.300;2023-04-20T03:40:23;102941.44;;;8.10;50.56
35918;BME280;22011;59.912;30.300;2023-04-20T03:42:51;102932.53;;;8.11;50.47
35918;BME280;22011;59.912;30.300;2023-04-20T03:45:18;102927.88;;;8.15;50.45
35918;BME280;22011;59.912;30.300;2023-04-20T03:47:48;102921.31;;;8.20;50.13
35918;BME280;22011;59.912;30.300;2023-04-20T03:50:15;102925.41;;;8.26;50.83
35918;BME280;22011;59.912;30.300;2023-04-20T03:52:44;102919.50;;;8.35;50.71
35918;BME280;22011;59.912;30.300;2023-04-20T03:55:12;102921.97;;;8.38;50.41
35918;BME280;22011;59.912;30.300;2023-04-20T03:57:45;102919.13;;;8.41;50.26
35918;BME280;22011;59.912;30.300;2023-04-20T04:00:13;102925.28;;;8.42;50.11
35918;BME280;22011;59.912;30.300;2023-04-20T04:02:46;102927.44;;;8.49;50.16
35918;BME280;22011;59.912;30.300;2023-04-20T04:05:21;102917.38;;;8.55;49.77
35918;BME280;22011;59.912;30.300;2023-04-20T04:07:50;102920.69;;;8.58;48.94
35918;BME280;22011;59.912;30.300;2023-04-20T04:10:18;102920.47;;;8.61;48.45
35918;BME280;22011;59.912;30.300;2023-04-20T04:12:46;102921.78;;;8.68;48.49
35918;BME280;22011;59.912;30.300;2023-04-20T04:15:14;102920.72;;;8.71;47.80
35918;BME280;22011;59.912;30.300;2023-04-20T04:17:55;102919.94;;;8.83;47.80
35918;BME280;22011;59.912;30.300;2023-04-20T04:20:22;102907.69;;;8.80;47.26
35918;BME280;22011;59.912;30.300;2023-04-20T04:22:52;102904.53;;;8.88;47.53
35918;BME280;22011;59.912;30.300;2023-04-20T04:25:32;102906.22;;;8.89;47.25
35918;BME280;22011;59.912;30.300;2023-04-20T04:28:00;102911.84;;;8.84;46.72
35918;BME280;22011;59.912;30.300;2023-04-20T04:30:30;102917.56;;;8.78;46.53
35918;BME280;22011;59.912;30.300;2023-04-20T04:32:58;102912.47;;;8.75;46.51
35918;BME280;22011;59.912;30.300;2023-04-20T04:35:26;102911.81;;;8.72;46.01
35918;BME280;22011;59.912;30.300;2023-04-20T04:37:57;102918.44;;;8.79;45.93
35918;BME280;22011;59.912;30.300;2023-04-20T04:40:25;102915.97;;;8.76;45.14
35918;BME280;22011;59.912;30.300;2023-04-20T04:42:55;102919.28;;;8.79;44.86
35918;BME280;22011;59.912;30.300;2023-04-20T04:45:23;102916.22;;;8.85;44.56
35918;BME280;22011;59.912;30.300;2023-04-20T04:47:52;102910.81;;;8.87;44.53
35918;BME280;22011;59.912;30.300;2023-04-20T04:50:19;102913.34;;;8.89;44.00
35918;BME280;22011;59.912;30.300;2023-04-20T04:52:47;102913.34;;;8.89;43.49
35918;BME280;22011;59.912;30.300;2023-04-20T04:55:16;102913.91;;;8.94;43.23
35918;BME280;22011;59.912;30.300;2023-04-20T04:57:44;102908.03;;;8.89;42.59
35918;BME280;22011;59.912;30.300;2023-04-20T05:00:12;102917.41;;;8.94;42.50
35918;BME280;22011;59.912;30.300;2023-04-20T05:02:40;102916.47;;;8.95;43.14
35918;BME280;22011;59.912;30.300;2023-04-20T05:05:08;102917.31;;;8.96;42.97
35918;BME280;22011;59.912;30.300;2023-04-20T05:07:36;102921.69;;;8.97;43.21
35918;BME280;22011;59.912;30.300;2023-04-20T05:10:06;102919.00;;;8.97;43.45
35918;BME280;22011;59.912;30.300;2023-04-20T05:12:35;102914.66;;;8.96;43.48
35918;BME280;22011;59.912;30.300;2023-04-20T05:15:03;102909.75;;;8.90;43.53
35918;BME280;22011;59.912;30.300;2023-04-20T05:17:31;102908.69;;;8.92;43.01
35918;BME280;22011;59.912;30.300;2023-04-20T05:19:58;102908.69;;;8.92;43.23
35918;BME280;22011;59.912;30.300;2023-04-20T05:22:26;102902.97;;;8.98;43.37
35918;BME280;22011;59.912;30.300;2023-04-20T05:24:53;102902.56;;;9.04;42.99
35918;BME280;22011;59.912;30.300;2023-04-20T05:27:21;102896.06;;;9.08;42.82
35918;BME280;22011;59.912;30.300;2023-04-20T05:29:49;102896.19;;;9.20;43.13
35918;BME280;22011;59.912;30.300;2023-04-20T05:32:17;102894.28;;;9.22;42.40
35918;BME280;22011;59.912;30.300;2023-04-20T05:34:44;102882.69;;;9.23;42.60
35918;BME280;22011;59.912;30.300;2023-04-20T05:37:12;102894.72;;;9.28;41.99
35918;BME280;22011;59.912;30.300;2023-04-20T05:39:41;102890.16;;;9.30;40.68
35918;BME280;22011;59.912;30.300;2023-04-20T05:42:08;102887.03;;;9.36;40.31
35918;BME280;22011;59.912;30.300;2023-04-20T05:44:36;102889.38;;;9.41;41.09
35918;BME280;22011;59.912;30.300;2023-04-20T05:47:06;102889.38;;;9.54;40.56
35918;BME280;22011;59.912;30.300;2023-04-20T05:49:34;102885.34;;;9.61;40.17
35918;BME280;22011;59.912;30.300;2023-04-20T05:52:01;102886.81;;;9.65;40.62
35918;BME280;22011;59.912;30.300;2023-04-20T05:54:29;102890.00;;;9.70;41.04
35918;BME280;22011;59.912;30.300;2023-04-20T05:56:56;102879.69;;;9.78;40.58
35918;BME280;22011;59.912;30.300;2023-04-20T05:59:25;102878.06;;;9.88;41.24
35918;BME280;22011;59.912;30.300;2023-04-20T06:01:52;102876.44;;;9.98;41.67
35918;BME280;22011;59.912;30.300;2023-04-20T06:04:21;102880.50;;;10.04;42.09
35918;BME280;22011;59.912;30.300;2023-04-20T06:06:49;102873.56;;;10.01;42.74
35918;BME280;22011;59.912;30.300;2023-04-20T06:09:17;102867.19;;;10.04;43.74
35918;BME280;22011;59.912;30.300;2023-04-20T06:11:44;102866.63;;;10.11;43.53
35918;BME280;22011;59.912;30.300;2023-04-20T06:14:12;102864.19;;;10.21;43.14
35918;BME280;22011;59.912;30.300;2023-04-20T06:16:40;102867.03;;;10.31;42.54
35918;BME280;22011;59.912;30.300;2023-04-20T06:19:07;102862.81;;;10.39;42.06
35918;BME280;22011;59.912;30.300;2023-04-20T06:21:36;102866.59;;;10.48;41.10
35918;BME280;22011;59.912;30.300;2023-04-20T06:24:04;102864.44;;;10.53;41.00
35918;BME280;22011;59.912;30.300;2023-04-20T06:26:32;102865.41;;;10.52;40.07
35918;BME280;22011;59.912;30.300;2023-04-20T06:28:59;102867.63;;;10.58;39.25
35918;BME280;22011;59.912;30.300;2023-04-20T06:31:27;102868.88;;;10.65;39.66
35918;BME280;22011;59.912;30.300;2023-04-20T06:33:54;102867.31;;;10.74;39.88
35918;BME280;22011;59.912;30.300;2023-04-20T06:36:22;102865.16;;;10.79;40.36
35918;BME280;22011;59.912;30.300;2023-04-20T06:38:50;102867.88;;;10.90;40.34
35918;BME280;22011;59.912;30.300;2023-04-20T06:41:19;102852.50;;;10.94;40.42
35918;BME280;22011;59.912;30.300;2023-04-20T06:43:47;102840.38;;;11.01;39.34
35918;BME280;22011;59.912;30.300;2023-04-20T06:46:14;102841.13;;;11.03;38.93
35918;BME280;22011;59.912;30.300;2023-04-20T06:48:41;102853.97;;;10.98;39.01
35918;BME280;22011;59.912;30.300;2023-04-20T06:51:11;102849.50;;;11.09;38.85
35918;BME280;22011;59.912;30.300;2023-04-20T06:53:38;102842.72;;;11.05;38.46
35918;BME280;22011;59.912;30.300;2023-04-20T06:56:07;102846.00;;;11.20;38.53
35918;BME280;22011;59.912;30.300;2023-04-20T06:58:36;102843.84;;;11.59;38.62
35918;BME280;22011;59.912;30.300;2023-04-20T07:01:04;102835.84;;;11.25;38.07
35918;BME280;22011;59.912;30.300;2023-04-20T07:03:31;102829.53;;;11.26;37.29
35918;BME280;22011;59.912;30.300;2023-04-20T07:05:59;102833.91;;;11.38;36.56
35918;BME280;22011;59.912;30.300;2023-04-20T07:08:26;102815.09;;;11.51;36.08
35918;BME280;22011;59.912;30.300;2023-04-20T07:10:54;102818.00;;;11.59;36.27
35918;BME280;22011;59.912;30.300;2023-04-20T07:13:22;102823.94;;;11.74;36.25
35918;BME280;22011;59.912;30.300;2023-04-20T07:15:50;102823.22;;;11.72;36.22
35918;BME280;22011;59.912;30.300;2023-04-20T07:18:18;102831.94;;;11.74;35.88
35918;BME280;22011;59.912;30.300;2023-04-20T07:20:45;102826.59;;;11.74;36.11
35918;BME280;22011;59.912;30.300;2023-04-20T07:23:13;102818.97;;;11.81;36.38
35918;BME280;22011;59.912;30.300;2023-04-20T07:25:40;102828.78;;;11.69;36.32
35918;BME280;22011;59.912;30.300;2023-04-20T07:28:08;102826.84;;;11.71;36.82
35918;BME280;22011;59.912;30.300;2023-04-20T07:30:37;102823.69;;;11.66;37.13
35918;BME280;22011;59.912;30.300;2023-04-20T07:33:04;102819.94;;;11.57;37.30
35918;BME280;22011;59.912;30.300;2023-04-20T07:35:33;102817.75;;;11.62;37.34
35918;BME280;22011;59.912;30.300;2023-04-20T07:38:00;102815.56;;;11.67;37.14
35918;BME280;22011;59.912;30.300;2023-04-20T07:40:28;102813.97;;;11.76;36.86
35918;BME280;22011;59.912;30.300;2023-04-20T07:42:56;102815.44;;;11.91;36.89
35918;BME280;22011;59.912;30.300;2023-04-20T07:45:23;102810.78;;;12.16;36.25
35918;BME280;22011;59.912;30.300;2023-04-20T07:47:52;102798.25;;;12.27;35.57
35918;BME280;22011;59.912;30.300;2023-04-20T07:50:20;102795.44;;;12.29;34.83
35918;BME280;22011;59.912;30.300;2023-04-20T07:52:48;102802.34;;;12.31;35.08
35918;BME280;22011;59.912;30.300;2023-04-20T07:55:15;102787.69;;;12.26;34.96
35918;BME280;22011;59.912;30.300;2023-04-20T07:57:43;102796.38;;;12.39;34.51
35918;BME280;22011;59.912;30.300;2023-04-20T08:00:12;102795.00;;;12.44;34.67
35918;BME280;22011;59.912;30.300;2023-04-20T08:02:40;102791.25;;;12.47;34.35
35918;BME280;22011;59.912;30.300;2023-04-20T08:05:09;102789.25;;;12.49;34.17
35918;BME280;22011;59.912;30.300;2023-04-20T08:07:36;102789.53;;;12.46;34.00
35918;BME280;22011;59.912;30.300;2023-04-20T08:10:04;102791.75;;;12.41;33.97
35918;BME280;22011;59.912;30.300;2023-04-20T08:12:32;102787.94;;;12.23;33.78
35918;BME280;22011;59.912;30.300;2023-04-20T08:15:00;102791.47;;;12.12;33.37
35918;BME280;22011;59.912;30.300;2023-04-20T08:17:31;102783.31;;;12.25;32.88
35918;BME280;22011;59.912;30.300;2023-04-20T08:19:58;102786.06;;;12.55;32.76
35918;BME280;22011;59.912;30.300;2023-04-20T08:22:27;102777.41;;;12.84;32.04
35918;BME280;22011;59.912;30.300;2023-04-20T08:24:56;102783.59;;;13.05;31.61
35918;BME280;22011;59.912;30.300;2023-04-20T08:27:23;102766.16;;;13.10;31.14
35918;BME280;22011;59.912;30.300;2023-04-20T08:29:51;102769.28;;;13.16;31.29
35918;BME280;22011;59.912;30.300;2023-04-20T08:32:18;102770.94;;;13.07;31.18
35918;BME280;22011;59.912;30.300;2023-04-20T08:34:47;102768.56;;;13.14;31.00
35918;BME280;22011;59.912;30.300;2023-04-20T08:37:15;102765.25;;;13.21;30.98
35918;BME280;22011;59.912;30.300;2023-04-20T08:39:44;102762.41;;;13.44;30.27
35918;BME280;22011;59.912;30.300;2023-04-20T08:42:11;102763.91;;;13.36;31.13
35918;BME280;22011;59.912;30.300;2023-04-20T08:44:39;102769.72;;;13.41;30.94
35918;BME280;22011;59.912;30.300;2023-04-20T08:47:08;102767.88;;;13.42;30.21
35918;BME280;22011;59.912;30.300;2023-04-20T08:49:36;102776.22;;;13.49;30.27
35918;BME280;22011;59.912;30.300;2023-04-20T08:52:04;102772.56;;;13.50;30.03
35918;BME280;22011;59.912;30.300;2023-04-20T08:54:32;102764.38;;;13.41;29.79
35918;BME280;22011;59.912;30.300;2023-04-20T08:57:01;102763.78;;;13.38;30.26
35918;BME280;22011;59.912;30.300;2023-04-20T08:59:29;102762.97;;;13.17;30.32
35918;BME280;22011;59.912;30.300;2023-04-20T09:02:07;102758.47;;;13.48;31.04
35918;BME280;22011;59.912;30.300;2023-04-20T09:04:35;102749.00;;;13.44;30.69
35918;BME280;22011;59.912;30.300;2023-04-20T09:07:03;102738.47;;;13.61;30.05
35918;BME280;22011;59.912;30.300;2023-04-20T09:09:31;102746.50;;;13.61;30.44
35918;BME280;22011;59.912;30.300;2023-04-20T09:12:01;102746.91;;;13.57;30.10
35918;BME280;22011;59.912;30.300;2023-04-20T09:14:29;102741.34;;;13.89;30.43
35918;BME280;22011;59.912;30.300;2023-04-20T09:16:57;102744.34;;;13.36;30.46
35918;BME280;22011;59.912;30.300;2023-04-20T09:19:28;102740.63;;;13.27;30.27
35918;BME280;22011;59.912;30.300;2023-04-20T09:21:57;102742.59;;;13.25;30.61
35918;BME280;22011;59.912;30.300;2023-04-20T09:24:30;102735.81;;;13.21;31.20
35918;BME280;22011;59.912;30.300;2023-04-20T09:26:58;102727.84;;;13.10;31.06
35918;BME280;22011;59.912;30.300;2023-04-20T09:29:27;102733.00;;;13.02;31.10
35918;BME280;22011;59.912;30.300;2023-04-20T09:31:55;102724.66;;;12.95;31.46
35918;BME280;22011;59.912;30.300;2023-04-20T09:34:22;102727.38;;;13.26;30.55
35918;BME280;22011;59.912;30.300;2023-04-20T09:36:51;102720.41;;;13.54;30.39
35918;BME280;22011;59.912;30.300;2023-04-20T09:39:21;102715.13;;;14.12;30.66
35918;BME280;22011;59.912;30.300;2023-04-20T09:41:50;102714.38;;;13.71;30.30
35918;BME280;22011;59.912;30.300;2023-04-20T09:44:18;102712.81;;;13.59;29.97
35918;BME280;22011;59.912;30.300;2023-04-20T09:46:47;102706.59;;;13.49;30.27
35918;BME280;22011;59.912;30.300;2023-04-20T09:49:15;102706.56;;;13.39;30.73
35918;BME280;22011;59.912;30.300;2023-04-20T09:51:42;102705.84;;;13.27;31.10
35918;BME280;22011;59.912;30.300;2023-04-20T09:54:11;102704.16;;;13.36;30.97
35918;BME280;22011;59.912;30.300;2023-04-20T09:56:40;102704.47;;;13.43;30.99
35918;BME280;22011;59.912;30.300;2023-04-20T09:59:07;102694.16;;;13.38;30.86
35918;BME280;22011;59.912;30.300;2023-04-20T10:01:35;102696.00;;;13.37;30.76
35918;BME280;22011;59.912;30.300;2023-04-20T10:04:07;102700.69;;;13.45;30.69
35918;BME280;22011;59.912;30.300;2023-04-20T10:06:36;102686.88;;;13.59;30.39
35918;BME280;22011;59.912;30.300;2023-04-20T10:09:05;102678.31;;;13.94;29.96
35918;BME280;22011;59.912;30.300;2023-04-20T10:11:34;102688.88;;;14.05;29.63
35918;BME280;22011;59.912;30.300;2023-04-20T10:14:14;102674.06;;;14.30;29.25
35918;BME280;22011;59.912;30.300;2023-04-20T10:16:42;102669.84;;;14.08;28.75
35918;BME280;22011;59.912;30.300;2023-04-20T10:19:11;102671.69;;;13.98;28.98
35918;BME280;22011;59.912;30.300;2023-04-20T10:21:46;102667.44;;;14.05;28.95
35918;BME280;22011;59.912;30.300;2023-04-20T10:24:14;102671.41;;;13.92;29.17
35918;BME280;22011;59.912;30.300;2023-04-20T10:26:43;102674.78;;;14.03;29.30
35918;BME280;22011;59.912;30.300;2023-04-20T10:29:22;102665.16;;;14.30;28.42
35918;BME280;22011;59.912;30.300;2023-04-20T10:31:50;102667.03;;;14.00;28.60
35918;BME280;22011;59.912;30.300;2023-04-20T10:34:29;102664.19;;;14.21;29.05
35918;BME280;22011;59.912;30.300;2023-04-20T10:37:06;102652.22;;;14.16;29.03
35918;BME280;22011;59.912;30.300;2023-04-20T10:39:35;102660.09;;;13.88;29.05
35918;BME280;22011;59.912;30.300;2023-04-20T10:42:04;102663.34;;;13.92;28.72
35918;BME280;22011;59.912;30.300;2023-04-20T10:44:31;102655.16;;;13.74;28.93
35918;BME280;22011;59.912;30.300;2023-04-20T10:47:00;102654.59;;;13.61;29.56
35918;BME280;22011;59.912;30.300;2023-04-20T10:49:29;102647.69;;;13.78;29.06
35918;BME280;22011;59.912;30.300;2023-04-20T10:51:57;102640.06;;;13.73;29.32
35918;BME280;22011;59.912;30.300;2023-04-20T10:54:25;102637.69;;;13.80;29.85
35918;BME280;22011;59.912;30.300;2023-04-20T10:56:53;102631.34;;;13.90;29.31
35918;BME280;22011;59.912;30.300;2023-04-20T10:59:23;102628.66;;;13.90;30.03
35918;BME280;22011;59.912;30.300;2023-04-20T11:01:51;102634.72;;;13.83;29.58
35918;BME280;22011;59.912;30.300;2023-04-20T11:04:29;102626.53;;;14.03;30.23
35918;BME280;22011;59.912;30.300;2023-04-20T11:07:04;102623.16;;;14.01;29.66
35918;BME280;22011;59.912;30.300;2023-04-20T11:09:32;102629.38;;;13.92;29.38
35918;BME280;22011;59.912;30.300;2023-04-20T11:12:01;102624.56;;;13.96;29.72
35918;BME280;22011;59.912;30.300;2023-04-20T11:14:29;102614.97;;;13.93;29.30
35918;BME280;22011;59.912;30.300;2023-04-20T11:16:57;102603.41;;;14.02;29.44
35918;BME280;22011;59.912;30.300;2023-04-20T11:19:27;102605.94;;;14.14;28.76
35918;BME280;22011;59.912;30.300;2023-04-20T11:21:56;102601.41;;;14.24;28.33
35918;BME280;22011;59.912;30.300;2023-04-20T11:24:25;102593.34;;;14.24;27.86
35918;BME280;22011;59.912;30.300;2023-04-20T11:26:54;102599.28;;;14.18;28.09
35918;BME280;22011;59.912;30.300;2023-04-20T11:29:29;102592.47;;;14.33;27.85
35918;BME280;22011;59.912;30.300;2023-04-20T11:31:59;102595.94;;;14.06;28.16
35918;BME280;22011;59.912;30.300;2023-04-20T11:34:27;102590.72;;;14.04;28.33
35918;BME280;22011;59.912;30.300;2023-04-20T11:36:56;102586.88;;;14.17;28.33
35918;BME280;22011;59.912;30.300;2023-04-20T11:39:25;102585.19;;;14.16;28.35
35918;BME280;22011;59.912;30.300;2023-04-20T11:41:53;102583.09;;;14.10;28.27
35918;BME280;22011;59.912;30.300;2023-04-20T11:44:22;102586.75;;;14.08;29.04
35918;BME280;22011;59.912;30.300;2023-04-20T11:46:49;102580.56;;;13.98;28.68
35918;BME280;22011;59.912;30.300;2023-04-20T11:49:18;102584.94;;;13.90;28.83
35918;BME280;22011;59.912;30.300;2023-04-20T11:51:46;102575.50;;;13.86;29.46
35918;BME280;22011;59.912;30.300;2023-04-20T11:54:16;102575.22;;;13.89;29.55
35918;BME280;22011;59.912;30.300;2023-04-20T11:56:44;102578.59;;;13.91;29.58
35918;BME280;22011;59.912;30.300;2023-04-20T11:59:12;102577.47;;;13.74;29.29
35918;BME280;22011;59.912;30.300;2023-04-20T12:01:41;102574.09;;;13.62;29.62
35918;BME280;22011;59.912;30.300;2023-04-20T12:04:09;102568.91;;;13.51;30.24
35918;BME280;22011;59.912;30.300;2023-04-20T12:06:36;102567.50;;;13.37;30.61
35918;BME280;22011;59.912;30.300;2023-04-20T12:09:04;102568.03;;;13.31;31.24
35918;BME280;22011;59.912;30.300;2023-04-20T12:11:33;102575.63;;;13.17;32.29
35918;BME280;22011;59.912;30.300;2023-04-20T12:14:01;102570.88;;;12.90;33.90
35918;BME280;22011;59.912;30.300;2023-04-20T12:16:29;102569.28;;;12.77;33.94
35918;BME280;22011;59.912;30.300;2023-04-20T12:18:57;102570.78;;;12.61;34.93
35918;BME280;22011;59.912;30.300;2023-04-20T12:21:24;102559.34;;;12.59;34.76
35918;BME280;22011;59.912;30.300;2023-04-20T12:23:52;102561.31;;;12.47;36.08
35918;BME280;22011;59.912;30.300;2023-04-20T12:26:20;102557.94;;;12.45;36.90
35918;BME280;22011;59.912;30.300;2023-04-20T12:28:48;102553.81;;;12.41;36.92
35918;BME280;22011;59.912;30.300;2023-04-20T12:31:16;102562.09;;;12.38;38.37
35918;BME280;22011;59.912;30.300;2023-04-20T12:33:44;102558.84;;;12.34;37.14
35918;BME280;22011;59.912;30.300;2023-04-20T12:36:11;102551.25;;;12.30;37.68
35918;BME280;22011;59.912;30.300;2023-04-20T12:38:39;102555.41;;;12.23;37.70
35918;BME280;22011;59.912;30.300;2023-04-20T12:41:06;102552.81;;;12.11;40.72
35918;BME280;22011;59.912;30.300;2023-04-20T12:43:34;102545.84;;;11.99;40.88
35918;BME280;22011;59.912;30.300;2023-04-20T12:46:03;102542.13;;;11.91;40.89
35918;BME280;22011;59.912;30.300;2023-04-20T12:48:30;102544.09;;;11.89;41.74
35918;BME280;22011;59.912;30.300;2023-04-20T12:50:57;102531.84;;;11.86;42.35
35918;BME280;22011;59.912;30.300;2023-04-20T12:53:25;102529.44;;;11.83;43.21